Time;durP1;ratioP1;P1;durP2;ratioP2;P2;SDS_P1;SDS_P2;PMS_P1;PMS_P2;Temp;Humidity;BMP_temperature;BMP_pressure;BME280_temperature;BME280_humidity;BME280_pressure;Samples;Min_cycle;Max_cycle;Signal;HPM_P1;HPM_P2
2022/11/18 00:01:24;;;;;;;27.08;15.13;;;;;;;12.68;100.00;99298.56;4972720;28;20051;-69
2022/11/18 00:03:52;;;;;;;30.83;15.50;;;;;;;12.68;100.00;99304.06;4975281;28;20055;-69
2022/11/18 00:06:25;;;;;;;33.63;15.18;;;;;;;12.61;100.00;99299.88;4965511;28;20521;-69
2022/11/18 00:08:54;;;;;;;29.05;13.57;;;;;;;12.73;100.00;99295.66;4974462;28;20061;-69
2022/11/18 00:14:19;;;;;;;30.05;13.95;;;;;;;12.67;100.00;99299.72;4974007;28;20054;-69
2022/11/18 00:16:51;;;;;;;27.67;13.88;;;;;;;12.71;100.00;99314.41;4973970;28;20047;-69
2022/11/18 00:19:21;;;;;;;24.20;14.02;;;;;;;12.75;100.00;99307.13;4974874;28;20055;-69
2022/11/18 00:21:49;;;;;;;23.45;13.13;;;;;;;12.75;100.00;99310.69;4966705;28;20059;-69
2022/11/18 00:24:17;;;;;;;30.38;14.82;;;;;;;12.69;100.00;99311.16;4970181;28;20070;-69
2022/11/18 00:26:45;;;;;;;26.35;14.43;;;;;;;12.61;100.00;99310.84;4961683;28;20047;-69
2022/11/18 00:29:13;;;;;;;24.05;13.15;;;;;;;12.55;100.00;99316.81;4956860;28;20050;-69
2022/11/18 00:31:42;;;;;;;28.75;14.35;;;;;;;12.56;100.00;99302.78;4974614;28;20051;-69
2022/11/18 00:34:12;;;;;;;29.95;14.73;;;;;;;12.53;100.00;99308.13;4975368;28;20058;-70
2022/11/18 00:36:40;;;;;;;31.25;14.20;;;;;;;12.52;100.00;99307.34;4964048;28;20051;-69
2022/11/18 00:39:12;;;;;;;27.02;13.52;;;;;;;12.56;100.00;99305.53;4974132;28;20058;-69
2022/11/18 00:44:27;;;;;;;28.35;13.85;;;;;;;12.61;100.00;99305.38;4959057;28;20486;-69
2022/11/18 00:46:55;;;;;;;31.25;13.68;;;;;;;12.47;100.00;99299.25;4963397;28;20050;-69
2022/11/18 00:49:23;;;;;;;25.50;14.18;;;;;;;12.47;100.00;99291.81;4971619;28;20039;-69
2022/11/18 00:51:51;;;;;;;26.13;13.75;;;;;;;12.45;100.00;99296.84;4970341;28;20066;-69
2022/11/18 00:54:19;;;;;;;23.42;12.43;;;;;;;12.44;100.00;99299.91;4956566;28;20054;-69
2022/11/18 00:56:47;;;;;;;26.58;12.90;;;;;;;12.52;100.00;99296.34;4970448;28;20059;-70
2022/11/18 00:59:15;;;;;;;25.10;13.27;;;;;;;12.50;100.00;99296.69;4972976;28;20058;-69
2022/11/18 01:01:43;;;;;;;24.00;13.73;;;;;;;12.59;100.00;99293.91;4970227;28;20050;-69
2022/11/18 01:04:11;;;;;;;23.58;13.45;;;;;;;12.63;100.00;99289.38;4968923;28;20050;-69
2022/11/18 01:06:40;;;;;;;22.80;12.50;;;;;;;12.61;100.00;99277.94;4973882;28;20406;-69
2022/11/18 01:09:07;;;;;;;25.67;12.68;;;;;;;12.50;100.00;99265.69;4973708;28;20494;-69
2022/11/18 01:14:24;;;;;;;27.35;12.57;;;;;;;12.49;100.00;99269.56;4970382;28;20035;-69
2022/11/18 01:16:56;;;;;;;23.83;12.23;;;;;;;12.55;100.00;99273.75;4969390;28;20051;-69
2022/11/18 01:19:24;;;;;;;21.08;11.27;;;;;;;12.58;100.00;99280.53;4973581;28;20054;-69
2022/11/18 01:21:52;;;;;;;25.92;12.52;;;;;;;12.57;100.00;99287.16;4973790;28;20053;-69
2022/11/18 01:24:20;;;;;;;18.70;10.90;;;;;;;12.56;100.00;99291.81;4964582;28;20380;-70
2022/11/18 01:26:48;;;;;;;21.77;11.15;;;;;;;12.45;100.00;99274.06;4973281;28;20061;-70
2022/11/18 01:29:16;;;;;;;18.88;10.40;;;;;;;12.45;100.00;99287.78;4972354;28;20059;-70
2022/11/18 01:31:44;;;;;;;21.25;11.35;;;;;;;12.54;100.00;99277.63;4971069;28;20505;-70
2022/11/18 01:34:32;;;;;;;20.70;10.15;;;;;;;12.58;100.00;99273.09;4965084;28;20043;-70
2022/11/18 01:37:00;;;;;;;16.95;9.27;;;;;;;12.48;100.00;99267.94;4955118;28;20051;-70
2022/11/18 01:39:28;;;;;;;19.60;9.93;;;;;;;12.36;100.00;99266.66;4969012;28;20039;-69
2022/11/18 01:41:56;;;;;;;18.35;9.43;;;;;;;12.36;100.00;99255.69;4969061;28;20055;-70
2022/11/18 01:45:15;;;;;;;16.23;9.15;;;;;;;12.44;100.00;99256.00;4972417;28;20043;-70
2022/11/18 01:47:53;;;;;;;21.00;9.90;;;;;;;12.48;100.00;99254.22;4950274;28;20051;-70
2022/11/18 01:50:21;;;;;;;20.15;10.55;;;;;;;12.46;100.00;99240.81;4964026;28;20054;-70
2022/11/18 01:52:52;;;;;;;19.42;10.30;;;;;;;12.47;100.00;99238.91;4971148;28;20043;-69
2022/11/18 01:55:24;;;;;;;20.17;10.40;;;;;;;12.53;100.00;99226.63;4962676;28;20047;-69
2022/11/18 01:58:01;;;;;;;18.13;10.88;;;;;;;12.55;100.00;99218.84;4970122;28;20081;-70
2022/11/18 02:00:29;;;;;;;18.42;10.55;;;;;;;12.52;100.00;99218.72;4967162;28;20039;-69
2022/11/18 02:02:59;;;;;;;22.98;11.13;;;;;;;12.45;100.00;99202.75;4960393;28;20050;-69
2022/11/18 02:05:29;;;;;;;27.42;12.35;;;;;;;12.41;100.00;99199.06;4973145;28;20039;-70
2022/11/18 02:07:57;;;;;;;22.83;11.80;;;;;;;12.47;100.00;99178.53;4972608;28;20055;-70
2022/11/18 02:10:25;;;;;;;20.40;11.57;;;;;;;12.51;100.00;99163.00;4972101;28;20046;-70
2022/11/18 02:12:55;;;;;;;24.33;12.15;;;;;;;12.52;100.00;99161.09;4967547;28;20501;-70
2022/11/18 02:15:31;;;;;;;24.77;12.52;;;;;;;12.50;100.00;99140.28;4971502;28;20059;-70
2022/11/18 02:18:23;;;;;;;21.90;11.90;;;;;;;12.49;100.00;99133.19;4969140;28;20062;-70
2022/11/18 02:21:01;;;;;;;23.75;13.27;;;;;;;12.53;100.00;99138.00;4971729;28;20058;-70
2022/11/18 02:23:50;;;;;;;20.73;12.00;;;;;;;12.50;100.00;99129.31;4963723;28;20074;-69
2022/11/18 02:26:21;;;;;;;23.15;10.82;;;;;;;12.46;100.00;99117.38;4972782;28;20603;-69
2022/11/18 02:29:07;;;;;;;21.23;11.23;;;;;;;12.35;100.00;99110.63;4972589;28;20050;-70
2022/11/18 02:31:45;;;;;;;21.85;11.93;;;;;;;12.35;100.00;99105.97;4971848;28;20047;-70
2022/11/18 02:34:22;;;;;;;18.13;11.23;;;;;;;12.39;100.00;99105.28;4970376;28;20043;-69
2022/11/18 02:37:19;;;;;;;24.92;12.07;;;;;;;12.35;100.00;99094.97;4954428;28;20055;-69
2022/11/18 02:39:54;;;;;;;21.13;11.38;;;;;;;12.32;100.00;99087.41;4965645;28;20050;-70
2022/11/18 02:42:25;;;;;;;19.83;10.70;;;;;;;12.22;100.00;99096.00;4957111;28;20039;-70
2022/11/18 02:44:59;;;;;;;22.88;11.70;;;;;;;12.21;100.00;99091.63;4963003;28;20067;-70
2022/11/18 02:47:29;;;;;;;20.10;11.45;;;;;;;12.33;100.00;99089.00;4971175;28;20398;-70
2022/11/18 02:50:02;;;;;;;22.20;11.57;;;;;;;12.42;100.00;99088.19;4971314;28;20055;-70
2022/11/18 02:52:32;;;;;;;20.90;11.02;;;;;;;12.35;100.00;99092.25;4967092;28;20433;-69
2022/11/18 02:55:03;;;;;;;17.38;10.30;;;;;;;12.43;100.00;99089.78;4961910;28;20063;-70
2022/11/18 02:57:33;;;;;;;19.55;10.15;;;;;;;12.41;100.00;99086.56;4965475;28;20043;-70
2022/11/18 03:00:00;;;;;;;14.55;9.48;;;;;;;12.29;100.00;99079.84;4963450;28;20055;-70
2022/11/18 03:02:47;;;;;;;17.52;9.65;;;;;;;12.33;100.00;99093.69;4972510;28;20051;-70
2022/11/18 03:06:08;;;;;;;15.20;8.82;;;;;;;12.28;100.00;99108.41;4960743;28;20050;-70
2022/11/18 03:08:58;;;;;;;17.70;9.27;;;;;;;12.40;100.00;99106.88;4926110;29;20047;-70
2022/11/18 03:11:30;;;;;;;17.75;8.52;;;;;;;12.41;100.00;99114.78;4970798;28;20070;-69
2022/11/18 03:14:16;;;;;;;17.75;8.35;;;;;;;12.40;100.00;99115.13;4964170;28;20054;-70
2022/11/18 03:17:05;;;;;;;15.95;6.97;;;;;;;12.38;100.00;99136.59;4963058;28;20046;-70
2022/11/18 03:19:45;;;;;;;13.07;7.65;;;;;;;12.20;100.00;99153.91;4976197;28;20490;-70
2022/11/18 03:22:22;;;;;;;14.65;8.50;;;;;;;12.41;100.00;99158.69;4974884;28;20078;-70
2022/11/18 03:25:06;;;;;;;14.95;8.35;;;;;;;12.40;100.00;99156.25;4964421;28;20058;-70
2022/11/18 03:27:49;;;;;;;13.15;8.48;;;;;;;12.50;100.00;99156.75;4974377;28;20050;-70
2022/11/18 03:30:21;;;;;;;15.20;8.35;;;;;;;12.48;100.00;99145.25;4957110;29;20498;-69
2022/11/18 03:32:55;;;;;;;18.08;8.30;;;;;;;12.46;100.00;99131.06;4962705;28;20055;-70
2022/11/18 03:35:27;;;;;;;16.38;8.35;;;;;;;12.48;100.00;99120.56;4967300;28;20473;-70
2022/11/18 03:38:01;;;;;;;13.95;8.65;;;;;;;12.47;100.00;99113.47;4967381;28;20047;-69
2022/11/18 03:40:31;;;;;;;15.35;8.07;;;;;;;12.47;100.00;99112.69;4958010;28;20495;-70
2022/11/18 03:43:08;;;;;;;16.65;7.78;;;;;;;12.38;100.00;99101.75;4962264;28;20058;-70
2022/11/18 03:45:46;;;;;;;17.13;8.40;;;;;;;12.48;100.00;99076.66;4968217;28;20422;-70
2022/11/18 03:48:21;;;;;;;19.85;9.50;;;;;;;12.51;100.00;99064.22;4975047;28;20406;-70
2022/11/18 03:51:00;;;;;;;17.65;9.43;;;;;;;12.35;100.00;99053.00;4972436;28;20479;-70
2022/11/18 03:53:33;;;;;;;16.17;9.52;;;;;;;12.38;100.00;99062.53;4959801;28;20505;-70
2022/11/18 03:56:14;;;;;;;16.90;10.00;;;;;;;12.32;100.00;99065.44;4975038;28;20050;-70
2022/11/18 03:59:04;;;;;;;15.83;8.60;;;;;;;12.17;100.00;99060.53;4974457;28;20051;-70
2022/11/18 04:01:41;;;;;;;15.75;8.45;;;;;;;12.17;100.00;99064.06;4956570;28;20066;-70
2022/11/18 04:04:09;;;;;;;13.30;7.70;;;;;;;12.17;100.00;99068.75;4957316;28;20055;-70
2022/11/18 04:06:45;;;;;;;14.50;8.00;;;;;;;12.22;100.00;99074.84;4974231;28;20062;-70
2022/11/18 04:09:39;;;;;;;19.52;8.88;;;;;;;12.19;100.00;99091.97;4973000;28;20054;-70
2022/11/18 04:12:12;;;;;;;15.88;7.85;;;;;;;12.05;100.00;99099.56;4955808;28;20062;-70
2022/11/18 04:14:42;;;;;;;14.95;8.98;;;;;;;12.14;100.00;99099.56;4963810;28;20057;-70
2022/11/18 04:17:16;;;;;;;16.50;8.32;;;;;;;12.17;100.00;99098.91;4961610;28;20049;-70
2022/11/18 04:19:44;;;;;;;13.13;7.60;;;;;;;12.20;100.00;99095.50;4973875;28;20042;-70
2022/11/18 04:22:12;;;;;;;12.35;7.65;;;;;;;12.25;100.00;99094.50;4975260;28;20132;-70
2022/11/18 04:24:40;;;;;;;12.50;7.60;;;;;;;12.20;100.00;99088.09;4967852;28;20505;-70
2022/11/18 04:27:08;;;;;;;17.17;8.75;;;;;;;12.25;100.00;99100.81;4966749;28;20039;-70
2022/11/18 04:29:36;;;;;;;14.70;7.45;;;;;;;12.32;100.00;99103.06;4962816;28;20051;-70
2022/11/18 04:32:04;;;;;;;14.13;7.57;;;;;;;12.40;100.00;99101.41;4974709;28;20046;-70
2022/11/18 04:34:32;;;;;;;19.23;8.50;;;;;;;12.32;100.00;99103.06;4972953;28;20406;-70
2022/11/18 04:37:00;;;;;;;13.68;7.70;;;;;;;12.46;100.00;99094.63;4973657;28;20050;-70
2022/11/18 04:39:28;;;;;;;14.90;7.60;;;;;;;12.44;100.00;99083.97;4973504;28;20046;-70
2022/11/18 04:41:56;;;;;;;17.83;9.07;;;;;;;12.39;100.00;99077.84;4957808;28;20487;-69
2022/11/18 04:44:31;;;;;;;15.88;8.60;;;;;;;12.43;100.00;99068.66;4957349;28;20046;-70
2022/11/18 04:47:02;;;;;;;17.85;9.20;;;;;;;12.49;100.00;99072.81;4966240;28;20055;-70
2022/11/18 04:49:30;;;;;;;16.50;8.85;;;;;;;12.49;100.00;99066.50;4972831;28;20061;-70
2022/11/18 04:51:58;;;;;;;18.60;10.70;;;;;;;12.60;100.00;99062.25;4968759;28;20079;-70
2022/11/18 04:54:27;;;;;;;20.27;9.63;;;;;;;12.62;100.00;99062.72;4961180;28;20051;-70
2022/11/18 04:56:55;;;;;;;21.25;11.48;;;;;;;12.56;100.00;99055.03;4959322;28;20051;-70
2022/11/18 04:59:27;;;;;;;21.05;10.27;;;;;;;12.57;100.00;99060.16;4970070;28;20061;-69
2022/11/18 05:01:56;;;;;;;21.92;12.02;;;;;;;12.57;100.00;99068.41;4974779;28;20039;-70
2022/11/18 05:04:26;;;;;;;18.58;10.55;;;;;;;12.59;100.00;99063.41;4971474;28;20050;-70
2022/11/18 05:06:54;;;;;;;20.63;10.07;;;;;;;12.59;100.00;99055.16;4974114;28;20414;-70
2022/11/18 05:09:23;;;;;;;23.67;11.10;;;;;;;12.60;100.00;99061.44;4973509;28;20514;-70
2022/11/18 05:14:44;;;;;;;22.08;11.65;;;;;;;12.79;100.00;99069.25;4970725;28;20055;-70
2022/11/18 05:17:18;;;;;;;21.80;10.55;;;;;;;12.79;100.00;99068.44;4970256;28;20043;-70
2022/11/18 05:19:46;;;;;;;23.60;11.50;;;;;;;12.75;100.00;99066.38;4961116;28;20054;-70
2022/11/18 05:22:15;;;;;;;24.90;13.02;;;;;;;12.73;100.00;99067.84;4964420;28;20050;-71
2022/11/18 05:24:42;;;;;;;29.42;15.13;;;;;;;12.64;100.00;99062.41;4967442;28;20047;-70
2022/11/18 05:27:11;;;;;;;37.85;17.67;;;;;;;12.74;100.00;99059.28;4973465;28;20054;-70
2022/11/18 05:29:39;;;;;;;44.13;21.02;;;;;;;12.67;100.00;99056.28;4972788;28;20055;-70
2022/11/18 05:32:06;;;;;;;41.17;18.88;;;;;;;12.75;100.00;99060.06;4969875;28;20046;-70
2022/11/18 05:34:34;;;;;;;42.13;20.70;;;;;;;12.73;100.00;99049.44;4971767;28;20387;-70
2022/11/18 05:37:02;;;;;;;41.60;20.13;;;;;;;12.88;100.00;99050.00;4966773;28;20043;-70
2022/11/18 05:39:32;;;;;;;49.85;21.52;;;;;;;12.84;100.00;99044.38;4966313;28;20055;-70
2022/11/18 05:44:46;;;;;;;43.30;20.65;;;;;;;12.89;100.00;99046.09;4970107;28;20043;-70
2022/11/18 05:47:19;;;;;;;44.97;20.25;;;;;;;12.99;100.00;99050.41;4959780;28;20055;-70
2022/11/18 05:49:47;;;;;;;48.40;22.20;;;;;;;12.98;100.00;99065.28;4955481;28;20506;-70
2022/11/18 05:52:15;;;;;;;48.20;22.17;;;;;;;12.89;100.00;99066.13;4969600;28;20043;-70
2022/11/18 05:54:47;;;;;;;45.72;20.77;;;;;;;12.94;100.00;99064.34;4971259;28;20050;-73
2022/11/18 05:57:15;;;;;;;50.92;22.90;;;;;;;12.87;100.00;99062.91;4971336;28;20047;-73
2022/11/18 05:59:43;;;;;;;48.08;21.40;;;;;;;12.90;100.00;99069.66;4972659;28;20053;-73
2022/11/18 06:02:22;;;;;;;42.67;21.30;;;;;;;12.97;100.00;99080.13;4973398;28;20058;-73
2022/11/18 06:04:58;;;;;;;41.55;19.08;;;;;;;13.00;100.00;99088.50;4972123;28;20038;-73
2022/11/18 06:07:34;;;;;;;50.15;21.95;;;;;;;12.99;100.00;99088.84;4972392;28;20501;-73
2022/11/18 06:10:03;;;;;;;40.85;21.05;;;;;;;13.03;100.00;99087.03;4965176;28;20043;-73
2022/11/18 06:12:42;;;;;;;50.42;22.20;;;;;;;13.04;100.00;99080.41;4964965;28;20043;-71
2022/11/18 06:15:17;;;;;;;47.90;22.20;;;;;;;13.04;100.00;99088.66;4978881;28;20066;-72
2022/11/18 06:17:52;;;;;;;44.13;20.65;;;;;;;13.10;100.00;99081.81;4952941;29;20055;-73
2022/11/18 06:20:21;;;;;;;40.28;20.92;;;;;;;13.06;100.00;99086.38;4953980;29;20051;-72
2022/11/18 06:22:52;;;;;;;46.20;20.85;;;;;;;13.10;100.00;99089.28;4952874;29;20043;-71
2022/11/18 06:25:21;;;;;;;46.15;21.38;;;;;;;13.10;100.00;99101.03;4955070;28;20050;-70
2022/11/18 06:27:51;;;;;;;43.50;22.77;;;;;;;13.07;100.00;99090.75;4954199;28;20043;-70
2022/11/18 06:30:19;;;;;;;40.42;21.33;;;;;;;13.05;100.00;99087.50;4953876;29;20070;-70
2022/11/18 06:32:46;;;;;;;45.17;20.73;;;;;;;13.05;100.00;99087.50;4952775;29;20384;-70
2022/11/18 06:35:14;;;;;;;52.17;22.52;;;;;;;12.96;100.00;99095.78;4954966;28;20047;-70
2022/11/18 06:37:42;;;;;;;43.97;21.73;;;;;;;13.04;100.00;99110.63;4958537;28;20375;-71
2022/11/18 06:40:10;;;;;;;47.45;21.95;;;;;;;13.05;100.00;99109.47;4964418;28;20057;-71
2022/11/18 06:45:26;;;;;;;42.70;20.77;;;;;;;13.06;100.00;99115.78;4966315;28;20487;-70
2022/11/18 06:48:01;;;;;;;43.92;21.05;;;;;;;13.06;100.00;99110.28;4963852;28;20521;-69
2022/11/18 06:50:29;;;;;;;45.72;20.90;;;;;;;13.01;100.00;99114.03;4957471;28;20047;-69
2022/11/18 06:53:00;;;;;;;44.47;20.65;;;;;;;13.03;100.00;99114.50;4957696;29;20043;-69
2022/11/18 06:55:28;;;;;;;44.83;21.50;;;;;;;13.12;100.00;99119.94;4957898;29;20047;-69
2022/11/18 06:57:56;;;;;;;45.67;20.63;;;;;;;13.05;100.00;99120.47;4957643;29;20051;-69
2022/11/18 07:00:24;;;;;;;47.35;20.95;;;;;;;13.03;100.00;99118.06;4957620;29;20051;-69
2022/11/18 07:02:52;;;;;;;51.00;22.58;;;;;;;13.06;100.00;99115.78;4956344;29;20047;-70
2022/11/18 07:05:19;;;;;;;52.78;22.80;;;;;;;13.04;100.00;99119.66;4972621;28;20047;-69
2022/11/18 07:07:47;;;;;;;46.03;21.00;;;;;;;13.07;100.00;99123.69;4957530;29;20506;-70
2022/11/18 07:10:15;;;;;;;44.67;21.65;;;;;;;13.06;100.00;99122.09;4957266;29;20047;-69
2022/11/18 07:12:43;;;;;;;47.33;21.55;;;;;;;13.07;100.00;99128.38;4957448;29;20427;-70
2022/11/18 07:15:11;;;;;;;47.55;22.13;;;;;;;13.21;100.00;99130.88;4957156;29;20047;-70
2022/11/18 07:17:39;;;;;;;49.67;21.98;;;;;;;13.18;100.00;99140.59;4957319;29;20507;-70
2022/11/18 07:20:07;;;;;;;48.13;21.83;;;;;;;13.16;100.00;99142.88;4957327;29;20058;-70
2022/11/18 07:22:35;;;;;;;45.78;22.35;;;;;;;13.22;100.00;99152.53;4957219;29;20506;-70
2022/11/18 07:25:03;;;;;;;49.40;23.17;;;;;;;13.27;100.00;99149.59;4955931;29;20054;-69
2022/11/18 07:27:30;;;;;;;50.60;22.23;;;;;;;13.28;100.00;99164.09;4957122;29;20059;-69
2022/11/18 07:29:58;;;;;;;50.45;21.95;;;;;;;13.30;100.00;99161.84;4956813;29;20050;-69
2022/11/18 07:32:26;;;;;;;52.08;22.40;;;;;;;13.34;100.00;99161.97;4956774;29;20047;-69
2022/11/18 07:34:54;;;;;;;48.92;22.73;;;;;;;13.33;100.00;99168.63;4956763;29;20578;-70
2022/11/18 07:37:22;;;;;;;58.65;22.70;;;;;;;13.37;100.00;99170.38;4957051;29;20055;-69
2022/11/18 07:39:50;;;;;;;54.20;21.42;;;;;;;13.44;100.00;99176.13;4956847;29;20059;-69
2022/11/18 07:42:17;;;;;;;47.55;21.30;;;;;;;13.47;100.00;99174.69;4956741;29;20509;-69
2022/11/18 07:44:45;;;;;;;49.40;21.30;;;;;;;13.52;100.00;99187.41;4956643;29;20054;-69
2022/11/18 07:47:13;;;;;;;52.28;22.05;;;;;;;13.51;100.00;99199.56;4956611;29;20518;-69
2022/11/18 07:49:40;;;;;;;48.25;21.58;;;;;;;13.57;99.83;99195.47;4956561;29;20055;-69
2022/11/18 07:52:08;;;;;;;49.58;19.85;;;;;;;13.55;99.82;99197.75;4956557;29;20058;-69
2022/11/18 07:54:37;;;;;;;45.13;19.60;;;;;;;13.69;99.30;99201.03;4955252;28;20134;-69
2022/11/18 07:57:05;;;;;;;50.78;21.48;;;;;;;13.73;99.74;99197.63;4956579;29;20048;-69
2022/11/18 07:59:33;;;;;;;46.38;19.80;;;;;;;13.78;97.84;99200.97;4956601;29;20051;-69
2022/11/18 08:02:01;;;;;;;52.92;20.23;;;;;;;13.80;98.36;99197.91;4956418;29;20051;-69
2022/11/18 08:04:29;;;;;;;43.17;20.70;;;;;;;13.85;98.09;99194.94;4956447;29;20479;-69
2022/11/18 08:06:56;;;;;;;50.30;21.08;;;;;;;13.89;96.67;99201.38;4956370;29;20483;-69
2022/11/18 08:09:24;;;;;;;46.72;19.40;;;;;;;13.87;97.36;99198.16;4956435;28;20498;-69
2022/11/18 08:11:52;;;;;;;50.28;19.73;;;;;;;13.87;98.31;99186.38;4956110;29;20044;-69
2022/11/18 08:14:22;;;;;;;48.53;21.23;;;;;;;13.88;98.71;99177.75;4955938;29;20047;-69
2022/11/18 08:16:50;;;;;;;46.45;20.35;;;;;;;13.63;98.72;99193.34;4955790;28;20055;-69
2022/11/18 08:19:18;;;;;;;47.17;19.25;;;;;;;13.57;99.09;99184.47;4970889;28;20054;-69
2022/11/18 08:21:47;;;;;;;43.17;19.45;;;;;;;13.78;99.12;99183.69;4956150;29;20047;-69
2022/11/18 08:24:14;;;;;;;41.90;20.52;;;;;;;13.89;98.83;99179.38;4955920;28;20054;-69
2022/11/18 08:26:42;;;;;;;48.53;20.40;;;;;;;13.94;98.72;99173.66;4955817;28;20043;-69
2022/11/18 08:29:10;;;;;;;45.65;20.17;;;;;;;14.11;97.76;99186.47;4956118;28;20051;-69
2022/11/18 08:31:38;;;;;;;45.92;20.75;;;;;;;14.25;97.16;99174.34;4955407;28;20043;-69
2022/11/18 08:34:06;;;;;;;43.40;20.17;;;;;;;14.16;97.30;99174.44;4955042;28;20058;-69
2022/11/18 08:36:36;;;;;;;48.95;21.73;;;;;;;14.11;97.25;99169.16;4955641;28;20059;-69
2022/11/18 08:39:07;;;;;;;48.70;21.00;;;;;;;13.89;97.71;99178.56;4956024;28;20051;-69
2022/11/18 08:41:42;;;;;;;44.90;20.42;;;;;;;13.87;97.55;99173.41;4955445;28;20047;-69
2022/11/18 08:44:13;;;;;;;47.53;21.23;;;;;;;14.09;97.67;99172.22;4955778;29;20048;-69
2022/11/18 08:46:44;;;;;;;48.20;20.30;;;;;;;14.13;97.71;99172.34;4955170;28;20521;-69
2022/11/18 08:49:12;;;;;;;43.67;19.17;;;;;;;14.21;97.84;99165.16;4955591;29;20513;-69
2022/11/18 08:51:40;;;;;;;49.08;20.75;;;;;;;14.52;95.69;99164.66;4955509;28;20052;-69
2022/11/18 08:54:08;;;;;;;43.33;18.90;;;;;;;14.62;94.79;99182.69;4955073;28;20132;-69
2022/11/18 08:56:36;;;;;;;40.60;19.48;;;;;;;14.63;93.98;99178.00;4955254;28;20059;-69
2022/11/18 08:59:04;;;;;;;38.80;18.35;;;;;;;14.59;94.60;99182.56;4955035;28;20077;-69
2022/11/18 09:01:31;;;;;;;46.80;20.25;;;;;;;14.90;93.85;99178.50;4955086;28;20051;-69
2022/11/18 09:03:59;;;;;;;43.50;19.25;;;;;;;15.05;92.53;99188.03;4955344;29;20055;-69
2022/11/18 09:06:27;;;;;;;47.40;20.92;;;;;;;15.14;91.99;99182.41;4953715;28;20421;-69
2022/11/18 09:08:56;;;;;;;45.92;20.38;;;;;;;15.28;91.49;99180.09;4955291;29;20081;-69
2022/11/18 09:11:31;;;;;;;43.35;19.85;;;;;;;15.43;91.34;99180.53;4954871;28;20055;-69
2022/11/18 09:14:00;;;;;;;44.05;19.13;;;;;;;15.15;90.34;99192.28;4955084;28;20055;-69
2022/11/18 09:16:48;;;;;;;43.80;19.60;;;;;;;15.10;92.00;99195.28;4954986;28;20096;-69
2022/11/18 09:19:17;;;;;;;46.33;20.48;;;;;;;15.32;90.77;99186.50;4954092;28;20039;-70
2022/11/18 09:22:06;;;;;;;44.17;20.40;;;;;;;15.53;90.48;99174.53;4954441;28;20055;-70
2022/11/18 09:24:34;;;;;;;42.70;19.77;;;;;;;15.38;89.98;99189.03;4954438;29;20051;-70
2022/11/18 09:27:04;;;;;;;46.35;20.23;;;;;;;15.63;89.21;99183.50;4953384;29;20403;-70
2022/11/18 09:29:34;;;;;;;47.03;21.30;;;;;;;16.07;89.23;99186.34;4937251;29;20056;-70
2022/11/18 09:32:02;;;;;;;34.75;18.02;;;;;;;15.80;86.72;99185.94;4954402;28;20077;-69
2022/11/18 09:34:30;;;;;;;41.78;19.17;;;;;;;15.48;87.57;99198.81;4954271;28;20055;-70
2022/11/18 09:36:57;;;;;;;44.80;19.38;;;;;;;15.37;89.00;99192.94;4954908;28;20047;-70
2022/11/18 09:39:25;;;;;;;40.28;19.25;;;;;;;15.35;89.03;99198.00;4952686;29;20054;-70
2022/11/18 09:42:24;;;;;;;40.22;18.67;;;;;;;15.53;88.61;99196.59;4954555;28;20047;-70
2022/11/18 09:44:58;;;;;;;44.45;19.88;;;;;;;15.76;87.93;99198.84;4954211;29;20135;-70
2022/11/18 09:47:33;;;;;;;42.08;19.65;;;;;;;16.11;86.19;99197.50;4954264;28;20050;-70
2022/11/18 09:50:12;;;;;;;42.25;19.67;;;;;;;16.31;85.71;99198.44;4954372;28;20075;-69
2022/11/18 09:53:20;;;;;;;47.67;19.55;;;;;;;16.40;84.64;99201.03;4954629;29;20056;-70
2022/11/18 09:55:49;;;;;;;40.72;18.65;;;;;;;16.04;86.79;99198.09;4953624;28;20059;-69
2022/11/18 09:58:27;;;;;;;40.88;18.67;;;;;;;16.37;85.97;99194.25;4954368;29;20042;-70
2022/11/18 10:00:55;;;;;;;39.40;19.10;;;;;;;16.11;86.00;99190.03;4952430;29;20062;-70
2022/11/18 10:03:28;;;;;;;39.97;18.33;;;;;;;16.41;85.82;99190.81;4953150;29;20058;-70
2022/11/18 10:06:02;;;;;;;41.00;19.83;;;;;;;16.20;86.16;99192.63;4954347;28;20059;-70
2022/11/18 10:08:35;;;;;;;39.80;19.80;;;;;;;16.41;84.67;99190.81;4953977;28;20051;-70
2022/11/18 10:11:10;;;;;;;42.30;18.87;;;;;;;16.26;83.63;99195.94;4954064;28;20494;-70
2022/11/18 10:14:11;;;;;;;37.67;18.67;;;;;;;16.14;84.45;99196.00;4952610;29;20309;-70
2022/11/18 10:17:11;;;;;;;40.10;19.48;;;;;;;16.23;85.21;99188.38;4952848;28;20537;-70
2022/11/18 10:19:50;;;;;;;40.95;19.77;;;;;;;16.41;83.16;99188.84;4946184;28;20051;-70
2022/11/18 10:22:28;;;;;;;39.55;18.45;;;;;;;16.20;83.99;99194.59;4954010;28;20483;-69
2022/11/18 10:24:57;;;;;;;39.35;19.13;;;;;;;16.27;83.44;99188.47;4954390;28;20395;-69
2022/11/18 10:27:36;;;;;;;41.78;19.73;;;;;;;16.57;83.42;99199.91;4953616;28;20052;-69
2022/11/18 10:30:12;;;;;;;39.20;18.88;;;;;;;16.25;83.12;99184.09;4953259;28;20078;-69
2022/11/18 10:32:59;;;;;;;40.53;19.15;;;;;;;15.97;84.33;99167.53;4953932;28;20056;-69
2022/11/18 10:35:33;;;;;;;41.70;19.50;;;;;;;16.15;84.43;99173.56;4953482;28;20062;-69
2022/11/18 10:38:05;;;;;;;42.63;20.02;;;;;;;16.30;84.56;99155.44;4936870;29;20047;-69
2022/11/18 10:40:39;;;;;;;40.17;19.27;;;;;;;16.37;82.92;99174.13;4968865;28;20505;-69
2022/11/18 10:43:09;;;;;;;33.60;17.80;;;;;;;16.62;82.59;99166.50;4953466;28;20051;-70
2022/11/18 10:45:37;;;;;;;39.70;20.30;;;;;;;16.58;82.77;99171.16;4953875;29;20046;-69
2022/11/18 10:48:13;;;;;;;38.22;18.10;;;;;;;16.63;81.99;99161.78;4953662;28;20114;-70
2022/11/18 10:50:43;;;;;;;36.10;17.75;;;;;;;16.61;81.25;99170.44;4953950;29;20055;-70
2022/11/18 10:53:30;;;;;;;47.30;19.45;;;;;;;16.81;79.83;99169.72;4952699;29;20060;-70
2022/11/18 10:56:05;;;;;;;31.77;16.40;;;;;;;16.95;78.95;99172.81;4936832;29;20059;-69
2022/11/18 10:58:46;;;;;;;37.47;17.10;;;;;;;16.72;79.89;99169.91;4953806;29;20047;-69
2022/11/18 11:01:22;;;;;;;35.88;17.60;;;;;;;16.62;80.68;99171.25;4953784;29;20047;-69
2022/11/18 11:04:03;;;;;;;33.88;17.80;;;;;;;16.56;80.42;99167.13;4953819;29;20051;-69
2022/11/18 11:06:33;;;;;;;37.00;18.50;;;;;;;16.30;81.81;99160.13;4953764;29;20043;-69
2022/11/18 11:09:08;;;;;;;40.78;20.48;;;;;;;16.36;81.47;99162.31;4953753;29;20052;-69
2022/11/18 11:11:53;;;;;;;32.00;17.85;;;;;;;16.35;81.42;99160.69;4953459;29;20043;-69
2022/11/18 11:14:27;;;;;;;38.90;17.98;;;;;;;16.45;80.81;99161.31;4953470;28;20498;-69
2022/11/18 11:17:07;;;;;;;35.90;18.50;;;;;;;16.54;80.24;99167.47;4953639;29;20051;-69
2022/11/18 11:19:49;;;;;;;27.73;16.15;;;;;;;16.68;79.29;99169.81;4953610;28;20055;-69
2022/11/18 11:22:18;;;;;;;34.35;16.60;;;;;;;16.86;78.53;99161.16;4953473;28;20391;-69
2022/11/18 11:24:46;;;;;;;30.45;15.98;;;;;;;17.03;77.25;99173.81;4952612;28;20035;-68
2022/11/18 11:27:44;;;;;;;30.63;16.10;;;;;;;17.13;76.27;99170.53;4953513;29;20074;-68
2022/11/18 11:30:40;;;;;;;32.10;16.73;;;;;;;17.38;75.52;99172.25;4956819;29;20506;-69
2022/11/18 11:33:25;;;;;;;30.45;15.57;;;;;;;17.40;76.02;99186.53;4972471;28;20053;-69
2022/11/18 11:36:14;;;;;;;36.80;17.38;;;;;;;17.17;75.99;99184.44;4995759;28;20057;-69
2022/11/18 11:38:53;;;;;;;34.90;17.83;;;;;;;16.81;77.67;99180.78;4995815;28;20049;-69
2022/11/18 11:41:48;;;;;;;33.17;16.60;;;;;;;16.83;78.36;99179.25;4995191;28;20054;-68
2022/11/18 11:44:36;;;;;;;31.98;17.55;;;;;;;16.70;78.69;99183.25;4995610;28;20051;-68
2022/11/18 11:50:12;;;;;;;34.15;17.48;;;;;;;16.78;77.71;99174.00;4993686;28;20050;-68
2022/11/18 11:52:59;;;;;;;33.63;17.90;;;;;;;16.66;79.13;99185.91;4995556;28;20054;-68
2022/11/18 11:55:52;;;;;;;32.65;17.13;;;;;;;16.56;79.32;99181.72;4995423;28;20127;-68
2022/11/18 11:58:45;;;;;;;34.97;17.42;;;;;;;16.76;78.38;99181.81;4995268;28;20046;-68
2022/11/18 12:01:44;;;;;;;30.10;15.93;;;;;;;16.89;77.71;99180.59;4995426;28;20493;-69